Terminal Aerodrome Forecast
Issued by NWS

Home | Current Version | Previous Version | Text Only | Print | Product List | Glossary On
Versions: 1 2 3 4 5 6 7 8 9 10 11 12 13 14 15 16
000
FTUS46 KMTR 011739
TAFSNS
TAF
KSNS 011739Z 0118/0218 28010KT P6SM FEW010
     FM012100 28015G19KT P6SM SKC
     FM020400 28010KT P6SM SCT015 OVC025
     FM020700 29004KT P6SM BKN010 OVC025
      TEMPO 0210/0214 OVC008
     FM021700 25005KT P6SM BKN030=

USA.gov is the U.S. government's official web portal to all federal, state and local government web resources and services.